Hagerstown, MD (21740)

11:33 PM EST on February 07, 2016 (GMT -0500)
Hagerstown 1E - Pangborn Blvd. | | Change Station
CLOSE
Current Station
Personal Weather Station
Location: Hagerstown, MD
Elevation: 537 ft
Nearby Weather Stations

Elev 537 ft 39.64 °N, 77.70 °W | Updated 2 minutes ago

Mostly Cloudy
Mostly Cloudy
27.1 °F
Feels Like 27 °F
N
0.0
Wind Variable Wind from NNE
Gusts 0.0 mph

Today
High -- | Low -- °F
--% Chance of Precip.
Yesterday
High -- | Low -- °F
Precip. -- in
Pressure 29.93 in
Visibility 9.0 miles
Clouds Clear
Windchill 27 °F
Dew Point 22 °F
Humidity 80%
Rainfall 0.00 in
Snow Depth Not available.
7:13 AM 5:37 PM
Waning Crescent, 0% visible
METAR KHGR 080353Z 35007KT 9SM CLR 00/M06 A2988 RMK AO2 SLP134 T00001056
Pressure 29.93 in
Visibility 9.0 miles
Clouds Clear
Windchill 27 °F
Dew Point 22 °F
Humidity 80%
Rainfall 0.00 in
Snow Depth Not available.
7:13 AM 5:37 PM
Waning Crescent, 0% visible
METAR KHGR 080353Z 35007KT 9SM CLR 00/M06 A2988 RMK AO2 SLP134 T00001056

10-Day Weather Forecast

Almanac

Astronomy

Feb. 07, 2016 Rise Set
Actual Time
Civil Twilight
Nautical Twilight
Astronomical Twilight
Moon
Length of Visible Light
Length of Day
Tomorrow will be .
, % of the Moon is Illuminated

Today's Extremes

State Highs State Lows

Community

WunderPhotos

Upload Photos

1,891,382 photos uploaded!

WunderBlog® & News

Nearby

Air Quality

  Air Quality AQ Index Pollutant
Not available.

Snow Depth

Station Depth Elevation

Earthquake Activity

City Distance Mag. Time & Date
Minimum magnitude displayed is 2.5.

Coastal Water Temperatures

Place Temperature

Stations

Nearby Weather Stations

Station Location Temp. Windchill Dew Point Humidity Wind Precip. Elev Updated Type
                   

Watches & Warnings

There are currently no watches in effect.